createdAt,value
2018-12-11T00:00:55.412Z,98.50
2018-12-11T00:03:21.901Z,98.50
2018-12-11T00:05:48.384Z,98.50
2018-12-11T00:08:14.827Z,98.50
2018-12-11T00:10:41.311Z,98.50
2018-12-11T00:13:07.792Z,98.50
2018-12-11T00:15:34.252Z,98.50
2018-12-11T00:18:00.745Z,98.50
2018-12-11T00:20:27.603Z,98.50
2018-12-11T00:22:54.239Z,98.50
2018-12-11T00:25:20.743Z,98.50
2018-12-11T00:27:47.278Z,98.50
2018-12-11T00:30:13.747Z,98.50
2018-12-11T00:32:40.221Z,98.50
2018-12-11T00:35:06.831Z,98.50
2018-12-11T00:37:33.283Z,98.50
2018-12-11T00:39:59.782Z,98.50
2018-12-11T00:42:26.352Z,98.50
2018-12-11T00:44:52.804Z,98.50
2018-12-11T00:47:19.283Z,98.50
2018-12-11T00:49:45.751Z,98.50
2018-12-11T00:52:12.241Z,98.50
2018-12-11T00:54:38.735Z,98.50
2018-12-11T00:57:05.266Z,98.50
2018-12-11T00:59:31.735Z,98.50
2018-12-11T01:01:58.248Z,98.50
2018-12-11T01:04:24.749Z,98.50
2018-12-11T01:06:51.194Z,98.50
2018-12-11T01:09:17.666Z,98.50
2018-12-11T01:11:44.147Z,98.50
2018-12-11T01:14:10.582Z,98.50
2018-12-11T01:16:37.072Z,98.50
2018-12-11T01:19:03.566Z,98.50
2018-12-11T01:21:30.040Z,98.50
2018-12-11T01:23:56.518Z,98.50
2018-12-11T01:26:22.993Z,98.50
2018-12-11T01:28:49.439Z,98.50
2018-12-11T01:31:16.009Z,98.50
2018-12-11T01:33:42.499Z,98.50
2018-12-11T01:36:08.932Z,98.50
2018-12-11T01:38:35.428Z,98.50
2018-12-11T01:41:01.931Z,98.50
2018-12-11T01:43:28.884Z,98.50
2018-12-11T01:45:55.358Z,98.50
2018-12-11T01:48:21.843Z,98.50
2018-12-11T01:50:48.283Z,98.50
2018-12-11T01:53:14.779Z,98.50
2018-12-11T01:55:41.267Z,98.50
2018-12-11T01:58:07.712Z,98.50
2018-12-11T02:00:34.188Z,98.50
2018-12-11T02:03:00.660Z,98.50
2018-12-11T02:05:27.099Z,98.50
2018-12-11T02:07:53.580Z,98.50
2018-12-11T02:10:20.047Z,98.50
2018-12-11T02:12:46.495Z,98.50
2018-12-11T02:15:12.968Z,98.50
2018-12-11T02:17:39.451Z,98.50
2018-12-11T02:20:06.626Z,98.50
2018-12-11T02:22:33.096Z,98.50
2018-12-11T02:24:59.576Z,98.50
2018-12-11T02:27:26.018Z,98.50
2018-12-11T02:29:52.539Z,98.50
2018-12-11T02:32:19.063Z,98.50
2018-12-11T02:34:45.500Z,98.50
2018-12-11T02:37:11.971Z,98.50
2018-12-11T02:39:38.439Z,98.50
2018-12-11T02:42:04.880Z,98.50
2018-12-11T02:44:31.355Z,98.50
2018-12-11T02:46:57.854Z,98.50
2018-12-11T02:49:24.295Z,98.50
2018-12-11T02:51:50.759Z,98.50
2018-12-11T02:54:17.230Z,98.50
2018-12-11T02:56:43.681Z,98.50
2018-12-11T02:59:10.164Z,98.50
2018-12-11T03:01:36.642Z,98.50
2018-12-11T03:04:03.103Z,98.50
2018-12-11T03:06:29.580Z,98.50
2018-12-11T03:08:56.055Z,98.50
2018-12-11T03:11:22.497Z,98.50
2018-12-11T03:13:48.983Z,98.50
2018-12-11T03:16:15.464Z,98.50
2018-12-11T03:18:41.919Z,98.50
2018-12-11T03:21:08.439Z,98.50
2018-12-11T03:23:34.943Z,98.50
2018-12-11T03:26:01.392Z,98.50
2018-12-11T03:28:27.864Z,98.50
2018-12-11T03:30:54.381Z,98.50
2018-12-11T03:33:20.832Z,98.50
2018-12-11T03:35:47.327Z,98.50
2018-12-11T03:38:13.812Z,98.50
2018-12-11T03:40:40.263Z,98.50
2018-12-11T03:43:06.754Z,98.50
2018-12-11T03:45:33.263Z,98.50
2018-12-11T03:47:59.718Z,98.50
2018-12-11T03:50:26.193Z,98.50
2018-12-11T03:52:52.676Z,98.50
2018-12-11T03:55:19.119Z,98.50
2018-12-11T03:57:45.591Z,98.50
2018-12-11T04:00:12.114Z,98.50
2018-12-11T04:02:38.697Z,98.50
2018-12-11T04:05:05.311Z,98.50
2018-12-11T04:07:31.798Z,98.50
2018-12-11T04:09:58.247Z,98.50
2018-12-11T04:12:24.970Z,98.50
2018-12-11T04:14:51.706Z,98.50
2018-12-11T04:17:18.163Z,98.50
2018-12-11T04:19:44.659Z,98.50
2018-12-11T04:22:11.531Z,98.50
2018-12-11T04:24:37.978Z,98.50
2018-12-11T04:27:04.466Z,98.50
2018-12-11T04:29:30.945Z,98.50
2018-12-11T04:31:57.431Z,98.40
2018-12-11T04:34:23.899Z,98.30
2018-12-11T04:36:50.370Z,98.10
2018-12-11T04:39:16.819Z,97.80
2018-12-11T04:41:43.308Z,97.70
2018-12-11T04:44:09.788Z,97.50
2018-12-11T04:46:36.243Z,98.10
2018-12-11T04:49:02.841Z,97.80
2018-12-11T04:51:29.324Z,98.20
2018-12-11T04:53:55.767Z,98.00
2018-12-11T04:56:22.251Z,98.20
2018-12-11T04:58:48.730Z,98.50
2018-12-11T05:01:15.182Z,98.50
2018-12-11T05:03:41.656Z,98.40
2018-12-11T05:06:08.135Z,98.30
2018-12-11T05:08:34.579Z,98.20
2018-12-11T05:11:01.057Z,98.00
2018-12-11T05:13:27.530Z,98.00
2018-12-11T05:15:53.983Z,98.30
2018-12-11T05:18:21.315Z,98.10
2018-12-11T05:20:47.982Z,98.20
2018-12-11T05:23:14.427Z,98.00
2018-12-11T05:25:41.006Z,97.70
2018-12-11T05:28:07.485Z,97.10
2018-12-11T05:30:33.971Z,96.70
2018-12-11T05:33:00.483Z,97.00
2018-12-11T05:35:26.959Z,97.00
2018-12-11T05:37:53.400Z,97.60
2018-12-11T05:40:19.866Z,97.30
2018-12-11T05:42:46.328Z,97.50
2018-12-11T05:45:12.770Z,97.80
2018-12-11T05:47:39.241Z,98.20
2018-12-11T05:50:05.724Z,98.20
2018-12-11T05:52:32.175Z,98.40
2018-12-11T05:54:58.643Z,98.20
2018-12-11T05:57:25.545Z,98.40
2018-12-11T05:59:51.984Z,98.20
2018-12-11T06:02:18.466Z,98.10
2018-12-11T06:04:44.982Z,98.00
2018-12-11T06:07:11.427Z,98.00
2018-12-11T06:09:37.900Z,97.70
2018-12-11T06:12:04.391Z,98.10
2018-12-11T06:14:30.844Z,97.90
2018-12-11T06:16:57.320Z,97.90
2018-12-11T06:19:23.804Z,97.60
2018-12-11T06:21:50.247Z,97.70
2018-12-11T06:24:16.714Z,97.80
2018-12-11T06:26:43.227Z,97.90
2018-12-11T06:29:09.673Z,98.50
2018-12-11T06:31:36.179Z,98.00
2018-12-11T06:34:02.655Z,98.30
2018-12-11T06:36:29.158Z,98.20
2018-12-11T06:38:55.595Z,98.20
2018-12-11T06:41:22.070Z,98.10
2018-12-11T06:43:48.535Z,98.00
2018-12-11T06:46:15.019Z,97.80
2018-12-11T06:48:41.487Z,98.10
2018-12-11T06:51:07.932Z,98.50
2018-12-11T06:53:34.431Z,98.50
2018-12-11T06:56:00.867Z,98.50
2018-12-11T06:58:27.351Z,98.50
2018-12-11T07:00:53.791Z,98.50
2018-12-11T07:03:20.272Z,98.50
2018-12-11T07:05:46.714Z,98.50
2018-12-11T07:08:15.248Z,98.50
2018-12-11T07:10:41.697Z,98.50
2018-12-11T07:13:08.179Z,98.50
2018-12-11T07:15:34.619Z,98.50
2018-12-11T07:18:01.103Z,98.50
2018-12-11T07:20:27.549Z,98.50
2018-12-11T07:22:54.023Z,98.50
2018-12-11T07:25:20.500Z,98.50
2018-12-11T07:27:46.970Z,98.50
2018-12-11T07:30:13.528Z,98.50
2018-12-11T07:32:40.020Z,98.50
2018-12-11T07:35:06.523Z,98.50
2018-12-11T07:37:33.040Z,98.50
2018-12-11T07:39:59.593Z,98.50
2018-12-11T07:42:26.072Z,98.50
2018-12-11T07:44:52.547Z,98.50
2018-12-11T07:47:19.007Z,98.50
2018-12-11T07:49:45.500Z,98.50
2018-12-11T07:52:11.947Z,98.50
2018-12-11T07:54:38.420Z,98.50
2018-12-11T07:57:04.868Z,98.50
2018-12-11T07:59:31.345Z,98.50
2018-12-11T08:01:57.832Z,98.50
2018-12-11T08:04:24.275Z,98.50
2018-12-11T08:06:50.760Z,98.50
2018-12-11T08:09:17.191Z,98.50
2018-12-11T08:11:43.681Z,98.50
2018-12-11T08:14:10.127Z,98.50
2018-12-11T08:16:36.607Z,98.50
2018-12-11T08:19:03.075Z,98.50
2018-12-11T08:21:29.547Z,98.50
2018-12-11T08:23:55.997Z,98.50
2018-12-11T08:26:22.964Z,98.50
2018-12-11T08:28:49.554Z,98.50
2018-12-11T08:31:16.056Z,98.50
2018-12-11T08:33:42.488Z,98.50
2018-12-11T08:36:09.018Z,98.50
2018-12-11T08:38:35.479Z,98.50
2018-12-11T08:41:01.972Z,98.50
2018-12-11T08:43:28.447Z,98.50
2018-12-11T08:45:54.896Z,98.50
2018-12-11T08:48:21.371Z,98.50
2018-12-11T08:50:47.816Z,98.50
2018-12-11T08:53:14.296Z,98.50
2018-12-11T08:55:40.751Z,98.50
2018-12-11T08:58:07.224Z,98.50
2018-12-11T09:00:33.715Z,98.50
2018-12-11T09:03:00.302Z,98.50
2018-12-11T09:05:26.755Z,98.50
2018-12-11T09:07:53.228Z,98.50
2018-12-11T09:10:19.970Z,98.50
2018-12-11T09:12:46.452Z,98.50
2018-12-11T09:15:12.944Z,98.50
2018-12-11T09:17:39.400Z,98.50
2018-12-11T09:20:06.010Z,98.10
2018-12-11T09:22:32.489Z,98.20
2018-12-11T09:24:58.924Z,98.00
2018-12-11T09:27:25.391Z,98.00
2018-12-11T09:29:51.859Z,97.70
2018-12-11T09:32:18.299Z,97.50
2018-12-11T09:34:44.771Z,97.60
2018-12-11T09:37:11.243Z,97.40
2018-12-11T09:39:37.711Z,97.30
2018-12-11T09:42:07.075Z,97.30
2018-12-11T09:44:32.712Z,97.00
2018-12-11T09:46:59.291Z,96.80
2018-12-11T09:49:25.807Z,96.80
2018-12-11T09:51:52.281Z,97.00
2018-12-11T09:54:18.723Z,96.40
2018-12-11T09:56:45.190Z,96.20
2018-12-11T09:59:11.635Z,96.50
2018-12-11T10:01:38.115Z,96.00
2018-12-11T10:04:04.663Z,96.50
2018-12-11T10:06:31.154Z,96.00
2018-12-11T10:08:59.659Z,95.40
2018-12-11T10:11:26.155Z,95.80
2018-12-11T10:13:52.626Z,96.90
2018-12-11T10:16:19.100Z,95.70
2018-12-11T10:18:45.567Z,95.50
2018-12-11T10:21:12.007Z,95.50
2018-12-11T10:23:38.835Z,95.80
2018-12-11T10:26:05.292Z,95.80
2018-12-11T10:28:31.760Z,95.80
2018-12-11T10:31:05.286Z,95.50
2018-12-11T10:33:31.790Z,95.10
2018-12-11T10:35:58.243Z,95.20
2018-12-11T10:38:25.020Z,94.70
2018-12-11T10:40:51.520Z,94.70
2018-12-11T10:43:18.043Z,94.80
2018-12-11T10:45:44.516Z,94.30
2018-12-11T10:48:11.031Z,94.40
2018-12-11T10:50:37.476Z,94.10
2018-12-11T10:53:03.962Z,93.80
2018-12-11T10:55:30.407Z,94.10
2018-12-11T10:57:56.906Z,93.60
2018-12-11T11:00:29.399Z,94.20
2018-12-11T11:03:06.111Z,94.30
2018-12-11T11:05:32.928Z,94.30
2018-12-11T11:07:59.371Z,94.60
2018-12-11T11:10:25.851Z,94.40
2018-12-11T11:12:52.298Z,94.30
2018-12-11T11:15:18.787Z,94.00
2018-12-11T11:17:45.259Z,94.10
2018-12-11T11:20:11.739Z,93.20
2018-12-11T11:22:38.204Z,93.40
2018-12-11T11:25:05.829Z,93.60
2018-12-11T11:27:32.311Z,93.30
2018-12-11T11:29:58.806Z,93.60
2018-12-11T11:32:25.240Z,94.20
2018-12-11T11:34:52.020Z,93.40
2018-12-11T11:37:18.455Z,94.00
2018-12-11T11:39:44.931Z,94.10
2018-12-11T11:42:11.363Z,93.70
2018-12-11T11:44:38.908Z,93.70
2018-12-11T11:47:05.587Z,93.60
2018-12-11T11:49:32.037Z,93.90
2018-12-11T11:51:58.789Z,94.40
2018-12-11T11:54:25.263Z,94.60
2018-12-11T11:56:51.744Z,95.30
2018-12-11T11:59:18.170Z,97.10
2018-12-11T12:01:47.584Z,97.60
2018-12-11T12:04:14.128Z,98.50
2018-12-11T12:06:40.605Z,98.50
2018-12-11T12:09:07.063Z,98.50
2018-12-11T12:11:33.560Z,98.50
2018-12-11T12:13:59.996Z,98.50
2018-12-11T12:16:26.572Z,98.00
2018-12-11T12:18:53.031Z,98.00
2018-12-11T12:21:19.521Z,97.20
2018-12-11T12:23:45.998Z,97.20
2018-12-11T12:26:12.438Z,97.20
2018-12-11T12:28:38.937Z,96.70
2018-12-11T12:31:05.746Z,96.70
2018-12-11T12:33:32.259Z,96.10
2018-12-11T12:35:58.708Z,96.10
2018-12-11T12:38:25.187Z,96.70
2018-12-11T12:40:51.628Z,96.30
2018-12-11T12:43:18.107Z,96.60
2018-12-11T12:45:44.622Z,96.50
2018-12-11T12:48:11.143Z,96.60
2018-12-11T12:50:37.631Z,96.70
2018-12-11T12:53:04.123Z,96.40
2018-12-11T12:55:31.500Z,96.20
2018-12-11T12:57:58.123Z,96.40
2018-12-11T13:00:24.603Z,96.50
2018-12-11T13:02:51.075Z,96.20
2018-12-11T13:05:17.565Z,95.90
2018-12-11T13:07:44.008Z,95.80
2018-12-11T13:10:10.583Z,95.80
2018-12-11T13:12:37.333Z,96.30
2018-12-11T13:15:07.332Z,96.20
2018-12-11T13:17:33.115Z,96.30
2018-12-11T13:19:59.601Z,96.60
2018-12-11T13:22:26.156Z,96.40
2018-12-11T13:24:52.703Z,96.40
2018-12-11T13:27:19.180Z,97.10
2018-12-11T13:29:45.630Z,97.40
2018-12-11T13:32:12.100Z,97.10
2018-12-11T13:34:38.633Z,97.60
2018-12-11T13:37:05.177Z,97.40
2018-12-11T13:39:31.611Z,96.70
2018-12-11T13:41:58.115Z,96.70
2018-12-11T13:44:24.717Z,96.90
2018-12-11T13:46:51.358Z,96.90
2018-12-11T13:49:17.935Z,97.20
2018-12-11T13:51:44.828Z,96.90
2018-12-11T13:54:11.330Z,97.10
2018-12-11T13:56:37.812Z,96.90
2018-12-11T13:59:04.263Z,96.70
2018-12-11T14:01:30.743Z,96.70
2018-12-11T14:03:57.219Z,96.40
2018-12-11T14:06:23.663Z,96.70
2018-12-11T14:08:50.135Z,96.30
2018-12-11T14:11:16.575Z,96.40
2018-12-11T14:13:43.052Z,96.40
2018-12-11T14:16:09.519Z,96.10
2018-12-11T14:18:37.516Z,96.60
2018-12-11T14:21:04.290Z,96.90
2018-12-11T14:23:30.763Z,96.90
2018-12-11T14:25:57.219Z,96.80
2018-12-11T14:28:23.723Z,96.80
2018-12-11T14:30:50.167Z,97.00
2018-12-11T14:33:16.656Z,97.50
2018-12-11T14:35:43.130Z,97.30
2018-12-11T14:38:09.562Z,97.40
2018-12-11T14:40:36.042Z,97.50
2018-12-11T14:43:02.490Z,97.80
2018-12-11T14:45:28.967Z,97.80
2018-12-11T14:47:55.461Z,98.20
2018-12-11T14:50:21.999Z,98.50
2018-12-11T14:52:48.530Z,98.50
2018-12-11T14:55:15.059Z,98.50
2018-12-11T14:57:41.564Z,98.30
2018-12-11T15:00:08.277Z,98.50
2018-12-11T15:02:34.751Z,98.50
2018-12-11T15:05:02.394Z,98.50
2018-12-11T15:07:29.093Z,98.50
2018-12-11T15:09:55.622Z,98.50
2018-12-11T15:12:22.123Z,98.50
2018-12-11T15:14:48.559Z,98.50
2018-12-11T15:17:15.031Z,98.50
2018-12-11T15:19:41.471Z,98.50
2018-12-11T15:22:07.957Z,98.50
2018-12-11T15:24:34.392Z,98.50
2018-12-11T15:27:03.901Z,98.50
2018-12-11T15:29:31.538Z,98.50
2018-12-11T15:31:58.760Z,98.50
2018-12-11T15:34:25.252Z,98.50
2018-12-11T15:36:51.707Z,98.50
2018-12-11T15:39:18.435Z,98.50
2018-12-11T15:41:44.926Z,98.50
2018-12-11T15:44:11.391Z,98.50
2018-12-11T15:46:38.014Z,98.50
2018-12-11T15:49:04.489Z,98.50
2018-12-11T15:51:31.100Z,98.50
2018-12-11T15:53:57.595Z,98.50
2018-12-11T15:56:24.108Z,98.50
2018-12-11T15:58:50.569Z,98.50
2018-12-11T16:01:17.035Z,98.50
2018-12-11T16:03:43.515Z,98.50
2018-12-11T16:06:09.963Z,98.50
2018-12-11T16:08:36.478Z,98.50
2018-12-11T16:11:02.999Z,98.50
2018-12-11T16:13:29.443Z,98.50
2018-12-11T16:15:55.918Z,98.50
2018-12-11T16:18:22.399Z,98.50
2018-12-11T16:20:48.843Z,98.50
2018-12-11T16:23:15.320Z,98.50
2018-12-11T16:25:41.792Z,98.50
2018-12-11T16:28:08.235Z,98.50
2018-12-11T16:30:34.709Z,98.50
2018-12-11T16:33:01.187Z,98.50
2018-12-11T16:35:27.628Z,98.50
2018-12-11T16:37:54.255Z,98.50
2018-12-11T16:40:20.735Z,98.50
2018-12-11T16:42:47.184Z,98.50
2018-12-11T16:45:13.700Z,98.50
2018-12-11T16:47:40.193Z,98.50
2018-12-11T16:50:06.652Z,98.50
2018-12-11T16:52:33.144Z,98.50
2018-12-11T16:54:59.640Z,98.50
2018-12-11T16:57:26.095Z,98.50
2018-12-11T16:59:52.599Z,98.50
2018-12-11T17:02:19.035Z,98.50
2018-12-11T17:04:45.520Z,98.50
2018-12-11T17:07:12.263Z,98.50
2018-12-11T17:09:40.751Z,98.50
2018-12-11T17:12:07.499Z,98.50
2018-12-11T17:14:33.948Z,98.50
2018-12-11T17:17:00.418Z,98.50
2018-12-11T17:19:27.394Z,98.50
2018-12-11T17:21:53.851Z,98.50
2018-12-11T17:24:20.335Z,98.50
2018-12-11T17:26:47.765Z,98.50
2018-12-11T17:29:14.524Z,98.50
2018-12-11T17:31:41.029Z,98.50
2018-12-11T17:34:07.475Z,98.50
2018-12-11T17:36:33.962Z,98.50
2018-12-11T17:39:00.463Z,98.50
2018-12-11T17:41:26.963Z,98.50
2018-12-11T17:43:53.452Z,98.50
2018-12-11T17:46:19.915Z,98.50
2018-12-11T17:48:46.381Z,98.50
2018-12-11T17:51:13.103Z,98.50
2018-12-11T17:53:39.829Z,98.50
2018-12-11T17:56:06.396Z,98.50
2018-12-11T17:58:32.868Z,98.50
2018-12-11T18:00:59.508Z,98.50
2018-12-11T18:03:25.948Z,98.50
2018-12-11T18:05:52.427Z,98.50
2018-12-11T18:08:18.903Z,98.50
2018-12-11T18:10:45.384Z,98.50
2018-12-11T18:13:11.823Z,98.50
2018-12-11T18:15:38.312Z,98.50
2018-12-11T18:18:04.763Z,98.50
2018-12-11T18:20:31.249Z,98.50
2018-12-11T18:22:57.683Z,98.50
2018-12-11T18:25:24.164Z,98.50
2018-12-11T18:27:50.671Z,98.50
2018-12-11T18:30:17.478Z,98.50
2018-12-11T18:32:43.924Z,98.50
2018-12-11T18:35:11.936Z,98.50
2018-12-11T18:37:38.422Z,98.50
2018-12-11T18:40:05.835Z,98.50
2018-12-11T18:42:32.379Z,98.50
2018-12-11T18:45:03.265Z,98.50
2018-12-11T18:47:29.205Z,98.50
2018-12-11T18:49:55.656Z,98.50
2018-12-11T18:52:22.152Z,98.50
2018-12-11T18:54:48.623Z,98.50
2018-12-11T18:57:15.132Z,98.50
2018-12-11T18:59:41.579Z,98.50
2018-12-11T19:02:08.068Z,98.50
2018-12-11T19:04:34.523Z,98.50
2018-12-11T19:07:00.967Z,98.50
2018-12-11T19:09:27.456Z,98.50
2018-12-11T19:11:53.899Z,98.50
2018-12-11T19:14:20.467Z,98.50
2018-12-11T19:16:46.945Z,98.50
2018-12-11T19:19:13.403Z,98.50
2018-12-11T19:21:39.878Z,98.50
2018-12-11T19:24:06.326Z,98.50
2018-12-11T19:26:32.811Z,98.50
2018-12-11T19:28:59.263Z,98.50
2018-12-11T19:31:25.836Z,98.50
2018-12-11T19:33:52.475Z,98.50
2018-12-11T19:36:18.961Z,98.50
2018-12-11T19:38:45.974Z,98.50
2018-12-11T19:41:12.446Z,98.50
2018-12-11T19:43:38.915Z,98.50
2018-12-11T19:46:05.369Z,98.50
2018-12-11T19:48:31.883Z,98.50
2018-12-11T19:50:58.642Z,98.50
2018-12-11T19:53:25.127Z,98.50
2018-12-11T19:55:51.603Z,98.50
2018-12-11T19:58:18.112Z,98.50
2018-12-11T20:00:44.594Z,98.50
2018-12-11T20:03:11.113Z,98.50
2018-12-11T20:05:37.717Z,98.50
2018-12-11T20:08:04.195Z,98.50
2018-12-11T20:10:30.639Z,98.50
2018-12-11T20:12:57.127Z,98.50
2018-12-11T20:15:24.288Z,98.50
2018-12-11T20:17:51.771Z,98.50
2018-12-11T20:20:20.444Z,98.50
2018-12-11T20:22:46.888Z,98.50
2018-12-11T20:25:13.360Z,98.50
2018-12-11T20:27:39.799Z,98.50
2018-12-11T20:30:07.128Z,98.50
2018-12-11T20:32:33.595Z,98.50
2018-12-11T20:35:00.524Z,98.50
2018-12-11T20:37:26.972Z,98.50
2018-12-11T20:39:53.515Z,98.50
2018-12-11T20:42:19.992Z,98.50
2018-12-11T20:44:46.463Z,98.50
2018-12-11T20:47:12.903Z,98.50
2018-12-11T20:49:39.379Z,98.50
2018-12-11T20:52:05.879Z,98.50
2018-12-11T20:54:33.683Z,98.50
2018-12-11T20:57:00.391Z,98.50
2018-12-11T20:59:26.847Z,98.50
2018-12-11T21:01:53.376Z,98.50
2018-12-11T21:04:19.806Z,98.50
2018-12-11T21:06:46.319Z,98.50
2018-12-11T21:09:12.797Z,98.50
2018-12-11T21:11:39.309Z,98.50
2018-12-11T21:14:05.753Z,98.50
2018-12-11T21:16:32.240Z,98.50
2018-12-11T21:18:59.031Z,98.50
2018-12-11T21:21:25.828Z,98.50
2018-12-11T21:23:52.300Z,98.50
2018-12-11T21:26:18.784Z,98.50
2018-12-11T21:28:45.242Z,98.50
2018-12-11T21:31:11.763Z,98.50
2018-12-11T21:33:38.200Z,98.50
2018-12-11T21:36:04.691Z,98.50
2018-12-11T21:38:31.159Z,98.50
2018-12-11T21:41:04.583Z,98.50
2018-12-11T21:43:31.159Z,98.50
2018-12-11T21:45:57.654Z,98.50
2018-12-11T21:48:24.090Z,98.50
2018-12-11T21:50:52.005Z,98.50
2018-12-11T21:53:18.740Z,98.50
2018-12-11T21:57:47.716Z,98.50
2018-12-11T22:00:14.360Z,98.50
2018-12-11T22:02:41.093Z,98.50
2018-12-11T22:05:08.016Z,98.50
2018-12-11T22:07:34.719Z,98.50
2018-12-11T22:10:01.436Z,98.50
2018-12-11T22:12:28.418Z,98.50
2018-12-11T22:14:55.065Z,98.50
2018-12-11T22:17:21.732Z,98.50
2018-12-11T22:19:48.381Z,98.50
2018-12-11T22:22:15.062Z,98.50
2018-12-11T22:24:41.696Z,98.50
2018-12-11T22:27:08.425Z,98.50
2018-12-11T22:29:35.100Z,98.50
2018-12-11T22:32:01.760Z,98.50
2018-12-11T22:34:28.448Z,98.50
2018-12-11T22:36:55.291Z,98.50
2018-12-11T22:39:22.005Z,98.50
2018-12-11T22:41:48.737Z,98.50
2018-12-11T22:44:15.415Z,98.50
2018-12-11T22:46:42.560Z,98.50
2018-12-11T22:49:09.201Z,98.50
2018-12-11T22:51:36.031Z,98.50
2018-12-11T22:54:02.773Z,98.50
2018-12-11T22:56:29.468Z,98.50
2018-12-11T22:58:56.133Z,98.50
2018-12-11T23:01:22.944Z,98.50
2018-12-11T23:03:49.713Z,98.50
2018-12-11T23:06:16.423Z,98.50
2018-12-11T23:08:43.109Z,98.50
2018-12-11T23:11:09.761Z,98.50
2018-12-11T23:13:36.506Z,98.50
2018-12-11T23:16:03.311Z,98.50
2018-12-11T23:18:30.028Z,98.50
2018-12-11T23:20:56.681Z,98.50
2018-12-11T23:23:23.388Z,98.50
2018-12-11T23:25:50.108Z,98.50
2018-12-11T23:28:16.803Z,98.50
2018-12-11T23:30:43.461Z,98.50
2018-12-11T23:33:10.360Z,98.50
2018-12-11T23:35:37.037Z,98.50
2018-12-11T23:38:03.712Z,98.50
2018-12-11T23:40:30.388Z,98.50
2018-12-11T23:42:57.049Z,98.50
2018-12-11T23:45:23.752Z,98.50
2018-12-11T23:47:50.415Z,98.50
2018-12-11T23:50:17.087Z,98.50
2018-12-11T23:52:43.728Z,98.50
2018-12-11T23:55:10.416Z,98.50
2018-12-11T23:57:37.080Z,98.50
